This is the latest recevied weather packets stored in our database for station/object KN4QD-13. If no packets are shown the sender has not sent any weather packets the latest 10 day(s).
| Time | Temp. | Humidity | Pressure | Rain* | Wind** | Luminosity | Snow |
|---|---|---|---|---|---|---|---|
| 1777509156 | 16.67° C | 85% | 1011.6 hPa | 0 mm | - | - | - |
| 1777503736 | 17.78° C | 79% | 1011 hPa | 0 mm | - | - | - |
| 1777502536 | 18.33° C | 80% | 1011 hPa | 0 mm | - | - | - |
| 1777501936 | 18.33° C | 80% | 1011 hPa | 0 mm | - | - | - |
| 1777499536 | 19.44° C | 78% | 1011.2 hPa | 0 mm | - | - | - |
| 1777497736 | 20° C | 73% | 1011.2 hPa | 0 mm | - | - | - |
| 1777496536 | 20° C | 70% | 1011.6 hPa | 0 mm | - | - | - |
| 1777495336 | 20° C | 73% | 1011.9 hPa | 0 mm | - | - | - |
| 1777492956 | 20° C | 71% | 1012.6 hPa | 0 mm | - | - | - |
| 1777488736 | 19.44° C | 76% | 1012.9 hPa | 0 mm | - | - | - |
| 1777483335 | 19.44° C | 76% | 1013.7 hPa | 0 mm | - | - | - |
| 1777479775 | 18.89° C | 75% | 1014.2 hPa | 0 mm | - | - | - |
| 1777471977 | 16.67° C | 79% | 1014.2 hPa | 0 mm | - | - | - |
| 1777465337 | 13.33° C | 94% | 1014.4 hPa | 0 mm | - | - | - |
| 1777464737 | 13.33° C | 94% | 1014.4 hPa | 0 mm | - | - | - |
| 1777462337 | 13.33° C | 94% | 1014.8 hPa | 0 mm | - | - | - |
| 1777458737 | 13.33° C | 94% | 1015.2 hPa | 0 mm | - | - | - |
| 1777456337 | 13.33° C | 94% | 1015.4 hPa | 0 mm | - | - | - |
| 1777452137 | 13.89° C | 95% | 1016.5 hPa | 0 mm | - | - | - |
| 1777451536 | 13.89° C | 95% | 1016.6 hPa | 0 mm | - | - | - |
| 1777449736 | 13.89° C | 93% | 1016.9 hPa | 0 mm | - | - | - |
| 1777449156 | 13.89° C | 93% | 1017 hPa | 0 mm | - | - | - |
| 1777448536 | 13.89° C | 92% | 1016.9 hPa | 0 mm | - | - | - |
| 1777446136 | 13.33° C | 95% | 1016.9 hPa | 0 mm | - | - | - |
| 1777445536 | 13.33° C | 94% | 1016.9 hPa | 0 mm | - | - | - |
* Rain latest hour (hover to see other rain measurements)
** Current wind speed in m/s (hover to see current wind gust speed)